sensor_id;sensor_type;location;lat;lon;timestamp;P1;durP1;ratioP1;P2;durP2;ratioP2
26963;SDS011;14521;48.148;-1.656;2022-11-20T00:00:31;4.90;;;3.78;;
26963;SDS011;14521;48.148;-1.656;2022-11-20T00:03:55;5.75;;;4.47;;
26963;SDS011;14521;48.148;-1.656;2022-11-20T00:07:18;6.15;;;4.40;;
26963;SDS011;14521;48.148;-1.656;2022-11-20T00:10:40;5.57;;;3.88;;
26963;SDS011;14521;48.148;-1.656;2022-11-20T00:14:02;6.43;;;3.80;;
26963;SDS011;14521;48.148;-1.656;2022-11-20T00:17:25;3.90;;;3.30;;
26963;SDS011;14521;48.148;-1.656;2022-11-20T00:20:47;3.88;;;3.33;;
26963;SDS011;14521;48.148;-1.656;2022-11-20T00:24:09;4.60;;;3.92;;
26963;SDS011;14521;48.148;-1.656;2022-11-20T00:27:32;6.53;;;3.70;;
26963;SDS011;14521;48.148;-1.656;2022-11-20T00:31:00;3.90;;;3.42;;
26963;SDS011;14521;48.148;-1.656;2022-11-20T00:34:30;5.95;;;3.60;;
26963;SDS011;14521;48.148;-1.656;2022-11-20T00:37:52;4.65;;;3.20;;
26963;SDS011;14521;48.148;-1.656;2022-11-20T00:41:15;4.22;;;3.17;;
26963;SDS011;14521;48.148;-1.656;2022-11-20T00:44:37;4.60;;;3.40;;
26963;SDS011;14521;48.148;-1.656;2022-11-20T00:48:00;4.00;;;3.40;;
26963;SDS011;14521;48.148;-1.656;2022-11-20T00:51:23;3.20;;;2.90;;
26963;SDS011;14521;48.148;-1.656;2022-11-20T00:54:47;3.33;;;2.65;;
26963;SDS011;14521;48.148;-1.656;2022-11-20T00:58:09;3.42;;;3.10;;
26963;SDS011;14521;48.148;-1.656;2022-11-20T01:01:35;3.25;;;2.95;;
26963;SDS011;14521;48.148;-1.656;2022-11-20T01:04:58;5.00;;;3.03;;
26963;SDS011;14521;48.148;-1.656;2022-11-20T01:08:20;5.40;;;2.83;;
26963;SDS011;14521;48.148;-1.656;2022-11-20T01:11:43;4.15;;;3.00;;
26963;SDS011;14521;48.148;-1.656;2022-11-20T01:15:06;5.85;;;3.20;;
26963;SDS011;14521;48.148;-1.656;2022-11-20T01:18:29;3.75;;;2.58;;
26963;SDS011;14521;48.148;-1.656;2022-11-20T01:21:52;4.45;;;2.55;;
26963;SDS011;14521;48.148;-1.656;2022-11-20T01:25:15;3.55;;;2.40;;
26963;SDS011;14521;48.148;-1.656;2022-11-20T01:28:38;2.88;;;2.35;;
26963;SDS011;14521;48.148;-1.656;2022-11-20T01:32:01;3.55;;;2.70;;
26963;SDS011;14521;48.148;-1.656;2022-11-20T01:35:23;4.72;;;2.85;;
26963;SDS011;14521;48.148;-1.656;2022-11-20T01:38:45;4.50;;;2.72;;
26963;SDS011;14521;48.148;-1.656;2022-11-20T01:42:08;3.72;;;2.95;;
26963;SDS011;14521;48.148;-1.656;2022-11-20T01:49:38;3.55;;;2.50;;
26963;SDS011;14521;48.148;-1.656;2022-11-20T01:53:10;2.85;;;2.60;;
26963;SDS011;14521;48.148;-1.656;2022-11-20T01:56:37;2.88;;;2.67;;
26963;SDS011;14521;48.148;-1.656;2022-11-20T02:00:08;2.65;;;1.65;;
26963;SDS011;14521;48.148;-1.656;2022-11-20T02:03:33;4.25;;;2.40;;
26963;SDS011;14521;48.148;-1.656;2022-11-20T02:06:59;2.90;;;2.45;;
26963;SDS011;14521;48.148;-1.656;2022-11-20T02:10:23;2.30;;;2.10;;
26963;SDS011;14521;48.148;-1.656;2022-11-20T02:13:45;2.42;;;2.10;;
26963;SDS011;14521;48.148;-1.656;2022-11-20T02:17:08;2.05;;;1.85;;
26963;SDS011;14521;48.148;-1.656;2022-11-20T02:20:30;3.15;;;2.13;;
26963;SDS011;14521;48.148;-1.656;2022-11-20T02:27:18;2.65;;;2.20;;
26963;SDS011;14521;48.148;-1.656;2022-11-20T02:30:42;2.95;;;2.08;;
26963;SDS011;14521;48.148;-1.656;2022-11-20T02:34:04;2.20;;;2.00;;
26963;SDS011;14521;48.148;-1.656;2022-11-20T02:37:29;2.70;;;2.00;;
26963;SDS011;14521;48.148;-1.656;2022-11-20T02:40:54;1.98;;;1.83;;
26963;SDS011;14521;48.148;-1.656;2022-11-20T02:44:16;2.20;;;1.98;;
26963;SDS011;14521;48.148;-1.656;2022-11-20T02:47:38;4.38;;;1.77;;
26963;SDS011;14521;48.148;-1.656;2022-11-20T02:51:01;2.05;;;1.85;;
26963;SDS011;14521;48.148;-1.656;2022-11-20T02:54:23;4.45;;;1.70;;
26963;SDS011;14521;48.148;-1.656;2022-11-20T02:57:46;2.05;;;1.90;;
26963;SDS011;14521;48.148;-1.656;2022-11-20T03:01:08;4.28;;;1.95;;
26963;SDS011;14521;48.148;-1.656;2022-11-20T03:04:30;3.05;;;1.77;;
26963;SDS011;14521;48.148;-1.656;2022-11-20T03:07:52;1.90;;;1.60;;
26963;SDS011;14521;48.148;-1.656;2022-11-20T03:11:15;1.90;;;1.70;;
26963;SDS011;14521;48.148;-1.656;2022-11-20T03:14:37;2.05;;;1.80;;
26963;SDS011;14521;48.148;-1.656;2022-11-20T03:17:59;1.77;;;1.50;;
26963;SDS011;14521;48.148;-1.656;2022-11-20T03:21:21;1.35;;;1.25;;
26963;SDS011;14521;48.148;-1.656;2022-11-20T03:24:44;1.70;;;1.60;;
26963;SDS011;14521;48.148;-1.656;2022-11-20T03:28:06;1.77;;;1.60;;
26963;SDS011;14521;48.148;-1.656;2022-11-20T03:31:29;1.80;;;1.70;;
26963;SDS011;14521;48.148;-1.656;2022-11-20T03:34:56;1.63;;;1.50;;
26963;SDS011;14521;48.148;-1.656;2022-11-20T03:38:18;2.92;;;1.52;;
26963;SDS011;14521;48.148;-1.656;2022-11-20T03:41:40;1.55;;;1.45;;
26963;SDS011;14521;48.148;-1.656;2022-11-20T03:45:04;2.25;;;1.30;;
26963;SDS011;14521;48.148;-1.656;2022-11-20T03:48:26;1.80;;;1.10;;
26963;SDS011;14521;48.148;-1.656;2022-11-20T03:51:49;1.73;;;1.25;;
26963;SDS011;14521;48.148;-1.656;2022-11-20T03:55:11;1.20;;;0.98;;
26963;SDS011;14521;48.148;-1.656;2022-11-20T03:58:34;2.00;;;1.48;;
26963;SDS011;14521;48.148;-1.656;2022-11-20T04:01:58;1.40;;;1.10;;
26963;SDS011;14521;48.148;-1.656;2022-11-20T04:05:21;1.50;;;1.40;;
26963;SDS011;14521;48.148;-1.656;2022-11-20T04:08:43;1.38;;;1.08;;
26963;SDS011;14521;48.148;-1.656;2022-11-20T04:12:13;1.90;;;1.13;;
26963;SDS011;14521;48.148;-1.656;2022-11-20T04:15:35;1.42;;;1.15;;
26963;SDS011;14521;48.148;-1.656;2022-11-20T04:18:59;1.00;;;0.93;;
26963;SDS011;14521;48.148;-1.656;2022-11-20T04:22:23;1.30;;;0.90;;
26963;SDS011;14521;48.148;-1.656;2022-11-20T04:25:46;2.03;;;1.15;;
26963;SDS011;14521;48.148;-1.656;2022-11-20T04:29:10;2.08;;;1.13;;
26963;SDS011;14521;48.148;-1.656;2022-11-20T04:32:33;1.80;;;1.45;;
26963;SDS011;14521;48.148;-1.656;2022-11-20T04:35:55;3.28;;;1.02;;
26963;SDS011;14521;48.148;-1.656;2022-11-20T04:39:25;1.58;;;1.10;;
26963;SDS011;14521;48.148;-1.656;2022-11-20T04:42:48;1.60;;;1.02;;
26963;SDS011;14521;48.148;-1.656;2022-11-20T04:46:10;2.42;;;1.60;;
26963;SDS011;14521;48.148;-1.656;2022-11-20T04:49:32;2.55;;;1.00;;
26963;SDS011;14521;48.148;-1.656;2022-11-20T04:52:55;1.38;;;1.10;;
26963;SDS011;14521;48.148;-1.656;2022-11-20T04:56:17;1.50;;;1.00;;
26963;SDS011;14521;48.148;-1.656;2022-11-20T04:59:40;1.70;;;1.10;;
26963;SDS011;14521;48.148;-1.656;2022-11-20T05:03:02;1.00;;;0.90;;
26963;SDS011;14521;48.148;-1.656;2022-11-20T05:06:25;1.08;;;0.98;;
26963;SDS011;14521;48.148;-1.656;2022-11-20T05:09:47;1.67;;;0.90;;
26963;SDS011;14521;48.148;-1.656;2022-11-20T05:13:09;1.33;;;1.00;;
26963;SDS011;14521;48.148;-1.656;2022-11-20T05:16:33;1.17;;;0.90;;
26963;SDS011;14521;48.148;-1.656;2022-11-20T05:19:57;1.02;;;0.77;;
26963;SDS011;14521;48.148;-1.656;2022-11-20T05:23:19;0.88;;;0.88;;
26963;SDS011;14521;48.148;-1.656;2022-11-20T05:26:42;1.23;;;0.95;;
26963;SDS011;14521;48.148;-1.656;2022-11-20T05:30:05;2.58;;;0.93;;
26963;SDS011;14521;48.148;-1.656;2022-11-20T05:33:28;1.60;;;1.13;;
26963;SDS011;14521;48.148;-1.656;2022-11-20T05:36:50;0.70;;;0.70;;
26963;SDS011;14521;48.148;-1.656;2022-11-20T05:40:13;2.15;;;0.85;;
26963;SDS011;14521;48.148;-1.656;2022-11-20T05:43:35;0.90;;;0.68;;
26963;SDS011;14521;48.148;-1.656;2022-11-20T05:46:58;1.67;;;1.00;;
26963;SDS011;14521;48.148;-1.656;2022-11-20T05:50:21;2.63;;;0.90;;
26963;SDS011;14521;48.148;-1.656;2022-11-20T05:53:43;0.85;;;0.85;;
26963;SDS011;14521;48.148;-1.656;2022-11-20T05:57:09;1.23;;;0.75;;
26963;SDS011;14521;48.148;-1.656;2022-11-20T06:00:31;1.02;;;0.80;;
26963;SDS011;14521;48.148;-1.656;2022-11-20T06:03:53;0.73;;;0.70;;
26963;SDS011;14521;48.148;-1.656;2022-11-20T06:07:16;1.50;;;0.80;;
26963;SDS011;14521;48.148;-1.656;2022-11-20T06:10:38;2.83;;;0.80;;
26963;SDS011;14521;48.148;-1.656;2022-11-20T06:14:00;2.50;;;0.90;;
26963;SDS011;14521;48.148;-1.656;2022-11-20T06:17:22;0.98;;;0.88;;
26963;SDS011;14521;48.148;-1.656;2022-11-20T06:20:45;2.92;;;0.82;;
26963;SDS011;14521;48.148;-1.656;2022-11-20T06:24:11;0.73;;;0.52;;
26963;SDS011;14521;48.148;-1.656;2022-11-20T06:27:33;0.60;;;0.60;;
26963;SDS011;14521;48.148;-1.656;2022-11-20T06:30:55;0.65;;;0.65;;
26963;SDS011;14521;48.148;-1.656;2022-11-20T06:34:18;0.77;;;0.63;;
26963;SDS011;14521;48.148;-1.656;2022-11-20T06:37:40;0.57;;;0.57;;
26963;SDS011;14521;48.148;-1.656;2022-11-20T06:41:03;0.63;;;0.45;;
26963;SDS011;14521;48.148;-1.656;2022-11-20T06:44:26;0.60;;;0.60;;
26963;SDS011;14521;48.148;-1.656;2022-11-20T06:47:48;1.77;;;0.80;;
26963;SDS011;14521;48.148;-1.656;2022-11-20T06:51:10;0.88;;;0.88;;
26963;SDS011;14521;48.148;-1.656;2022-11-20T06:54:33;1.25;;;0.70;;
26963;SDS011;14521;48.148;-1.656;2022-11-20T06:57:55;1.13;;;1.02;;
26963;SDS011;14521;48.148;-1.656;2022-11-20T07:01:17;2.33;;;0.60;;
26963;SDS011;14521;48.148;-1.656;2022-11-20T07:04:39;0.60;;;0.60;;
26963;SDS011;14521;48.148;-1.656;2022-11-20T07:08:02;0.80;;;0.80;;
26963;SDS011;14521;48.148;-1.656;2022-11-20T07:11:24;1.33;;;0.65;;
26963;SDS011;14521;48.148;-1.656;2022-11-20T07:14:47;2.17;;;0.80;;
26963;SDS011;14521;48.148;-1.656;2022-11-20T07:18:09;0.80;;;0.80;;
26963;SDS011;14521;48.148;-1.656;2022-11-20T07:21:31;0.90;;;0.80;;
26963;SDS011;14521;48.148;-1.656;2022-11-20T07:24:54;0.80;;;0.80;;
26963;SDS011;14521;48.148;-1.656;2022-11-20T07:28:16;1.80;;;0.60;;
26963;SDS011;14521;48.148;-1.656;2022-11-20T07:31:38;0.88;;;0.80;;
26963;SDS011;14521;48.148;-1.656;2022-11-20T07:35:00;3.83;;;0.70;;
26963;SDS011;14521;48.148;-1.656;2022-11-20T07:38:22;1.23;;;0.70;;
26963;SDS011;14521;48.148;-1.656;2022-11-20T07:41:45;1.33;;;0.80;;
26963;SDS011;14521;48.148;-1.656;2022-11-20T07:45:07;5.65;;;0.75;;
26963;SDS011;14521;48.148;-1.656;2022-11-20T07:48:30;0.82;;;0.60;;
26963;SDS011;14521;48.148;-1.656;2022-11-20T07:51:52;1.50;;;0.70;;
26963;SDS011;14521;48.148;-1.656;2022-11-20T07:55:15;2.33;;;0.70;;
26963;SDS011;14521;48.148;-1.656;2022-11-20T07:58:37;0.50;;;0.50;;
26963;SDS011;14521;48.148;-1.656;2022-11-20T08:01:59;0.98;;;0.80;;
26963;SDS011;14521;48.148;-1.656;2022-11-20T08:05:22;4.88;;;0.70;;
26963;SDS011;14521;48.148;-1.656;2022-11-20T08:08:44;7.88;;;0.60;;
26963;SDS011;14521;48.148;-1.656;2022-11-20T08:12:06;0.75;;;0.75;;
26963;SDS011;14521;48.148;-1.656;2022-11-20T08:15:48;0.63;;;0.63;;
26963;SDS011;14521;48.148;-1.656;2022-11-20T08:19:15;0.70;;;0.70;;
26963;SDS011;14521;48.148;-1.656;2022-11-20T08:26:02;0.82;;;0.52;;
26963;SDS011;14521;48.148;-1.656;2022-11-20T08:29:25;1.15;;;0.80;;
26963;SDS011;14521;48.148;-1.656;2022-11-20T08:36:11;0.70;;;0.60;;
26963;SDS011;14521;48.148;-1.656;2022-11-20T08:39:34;4.40;;;0.90;;
26963;SDS011;14521;48.148;-1.656;2022-11-20T08:42:58;1.13;;;0.90;;
26963;SDS011;14521;48.148;-1.656;2022-11-20T08:46:21;0.60;;;0.60;;
26963;SDS011;14521;48.148;-1.656;2022-11-20T08:49:43;1.60;;;0.75;;
26963;SDS011;14521;48.148;-1.656;2022-11-20T08:53:06;4.32;;;0.80;;
26963;SDS011;14521;48.148;-1.656;2022-11-20T08:56:28;4.53;;;1.30;;
26963;SDS011;14521;48.148;-1.656;2022-11-20T08:59:50;10.57;;;1.30;;
26963;SDS011;14521;48.148;-1.656;2022-11-20T09:03:27;2.95;;;1.05;;
26963;SDS011;14521;48.148;-1.656;2022-11-20T09:06:53;4.35;;;1.27;;
26963;SDS011;14521;48.148;-1.656;2022-11-20T09:10:15;4.00;;;1.10;;
26963;SDS011;14521;48.148;-1.656;2022-11-20T09:13:45;3.67;;;1.40;;
26963;SDS011;14521;48.148;-1.656;2022-11-20T09:17:09;1.67;;;1.10;;
26963;SDS011;14521;48.148;-1.656;2022-11-20T09:20:34;1.08;;;1.08;;
26963;SDS011;14521;48.148;-1.656;2022-11-20T09:23:57;1.88;;;1.27;;
26963;SDS011;14521;48.148;-1.656;2022-11-20T09:27:19;2.78;;;1.30;;
26963;SDS011;14521;48.148;-1.656;2022-11-20T09:30:44;3.67;;;1.35;;
26963;SDS011;14521;48.148;-1.656;2022-11-20T09:34:07;2.47;;;1.50;;
26963;SDS011;14521;48.148;-1.656;2022-11-20T09:37:29;4.68;;;1.65;;
26963;SDS011;14521;48.148;-1.656;2022-11-20T09:40:55;3.05;;;1.23;;
26963;SDS011;14521;48.148;-1.656;2022-11-20T09:51:37;6.38;;;2.13;;
26963;SDS011;14521;48.148;-1.656;2022-11-20T09:55:11;5.57;;;1.52;;
26963;SDS011;14521;48.148;-1.656;2022-11-20T09:58:37;4.70;;;1.90;;
26963;SDS011;14521;48.148;-1.656;2022-11-20T10:02:12;2.60;;;1.75;;
26963;SDS011;14521;48.148;-1.656;2022-11-20T10:05:53;4.18;;;2.05;;
26963;SDS011;14521;48.148;-1.656;2022-11-20T10:09:25;4.18;;;1.98;;
26963;SDS011;14521;48.148;-1.656;2022-11-20T10:20:12;9.02;;;2.67;;
26963;SDS011;14521;48.148;-1.656;2022-11-20T10:31:10;20.40;;;3.53;;
26963;SDS011;14521;48.148;-1.656;2022-11-20T10:38:33;18.50;;;3.53;;
26963;SDS011;14521;48.148;-1.656;2022-11-20T10:42:24;12.65;;;3.05;;
26963;SDS011;14521;48.148;-1.656;2022-11-20T10:49:18;13.70;;;2.90;;
26963;SDS011;14521;48.148;-1.656;2022-11-20T10:52:49;15.43;;;3.20;;
26963;SDS011;14521;48.148;-1.656;2022-11-20T10:59:55;10.07;;;2.97;;
26963;SDS011;14521;48.148;-1.656;2022-11-20T11:03:28;46.42;;;13.23;;
26963;SDS011;14521;48.148;-1.656;2022-11-20T11:06:52;90.07;;;20.10;;
26963;SDS011;14521;48.148;-1.656;2022-11-20T11:10:35;79.68;;;16.63;;
26963;SDS011;14521;48.148;-1.656;2022-11-20T11:14:11;57.15;;;15.40;;
26963;SDS011;14521;48.148;-1.656;2022-11-20T11:17:34;60.13;;;15.23;;
26963;SDS011;14521;48.148;-1.656;2022-11-20T11:20:57;63.90;;;14.85;;
26963;SDS011;14521;48.148;-1.656;2022-11-20T11:24:25;57.42;;;13.32;;
26963;SDS011;14521;48.148;-1.656;2022-11-20T11:28:19;60.95;;;13.98;;
26963;SDS011;14521;48.148;-1.656;2022-11-20T11:31:42;52.58;;;13.48;;
26963;SDS011;14521;48.148;-1.656;2022-11-20T11:35:05;29.80;;;8.32;;
26963;SDS011;14521;48.148;-1.656;2022-11-20T11:38:41;41.47;;;10.68;;
26963;SDS011;14521;48.148;-1.656;2022-11-20T11:42:04;49.22;;;12.07;;
26963;SDS011;14521;48.148;-1.656;2022-11-20T11:45:27;39.17;;;9.65;;
26963;SDS011;14521;48.148;-1.656;2022-11-20T11:48:56;42.65;;;11.35;;
26963;SDS011;14521;48.148;-1.656;2022-11-20T11:52:25;56.10;;;11.90;;
26963;SDS011;14521;48.148;-1.656;2022-11-20T11:59:20;41.17;;;12.57;;
26963;SDS011;14521;48.148;-1.656;2022-11-20T12:02:54;41.20;;;11.13;;
26963;SDS011;14521;48.148;-1.656;2022-11-20T12:06:21;28.75;;;6.38;;
26963;SDS011;14521;48.148;-1.656;2022-11-20T12:09:46;34.05;;;9.95;;
26963;SDS011;14521;48.148;-1.656;2022-11-20T12:13:34;37.85;;;10.50;;
26963;SDS011;14521;48.148;-1.656;2022-11-20T12:17:12;49.50;;;11.57;;
26963;SDS011;14521;48.148;-1.656;2022-11-20T12:20:43;49.63;;;11.68;;
26963;SDS011;14521;48.148;-1.656;2022-11-20T12:24:33;42.40;;;11.38;;
26963;SDS011;14521;48.148;-1.656;2022-11-20T12:39:48;32.85;;;9.10;;
26963;SDS011;14521;48.148;-1.656;2022-11-20T12:43:20;33.63;;;8.63;;
26963;SDS011;14521;48.148;-1.656;2022-11-20T12:47:22;28.92;;;7.90;;
26963;SDS011;14521;48.148;-1.656;2022-11-20T12:58:58;33.58;;;7.80;;
26963;SDS011;14521;48.148;-1.656;2022-11-20T13:02:25;29.15;;;7.55;;
26963;SDS011;14521;48.148;-1.656;2022-11-20T13:06:17;24.50;;;7.22;;
26963;SDS011;14521;48.148;-1.656;2022-11-20T13:09:46;32.10;;;6.43;;
26963;SDS011;14521;48.148;-1.656;2022-11-20T13:20:36;17.83;;;5.45;;
26963;SDS011;14521;48.148;-1.656;2022-11-20T13:24:18;22.63;;;5.53;;
26963;SDS011;14521;48.148;-1.656;2022-11-20T13:27:48;22.75;;;5.95;;
26963;SDS011;14521;48.148;-1.656;2022-11-20T13:31:24;25.23;;;4.93;;
26963;SDS011;14521;48.148;-1.656;2022-11-20T13:34:52;20.60;;;5.53;;
26963;SDS011;14521;48.148;-1.656;2022-11-20T13:38:16;18.70;;;4.80;;
26963;SDS011;14521;48.148;-1.656;2022-11-20T13:41:38;19.20;;;5.15;;
26963;SDS011;14521;48.148;-1.656;2022-11-20T13:45:02;16.40;;;4.88;;
26963;SDS011;14521;48.148;-1.656;2022-11-20T13:48:39;14.35;;;4.45;;
26963;SDS011;14521;48.148;-1.656;2022-11-20T13:52:06;21.33;;;4.65;;
26963;SDS011;14521;48.148;-1.656;2022-11-20T14:03:47;15.38;;;4.40;;
26963;SDS011;14521;48.148;-1.656;2022-11-20T14:07:31;17.02;;;3.95;;
26963;SDS011;14521;48.148;-1.656;2022-11-20T14:11:04;15.57;;;3.75;;
26963;SDS011;14521;48.148;-1.656;2022-11-20T14:14:51;13.73;;;3.90;;
26963;SDS011;14521;48.148;-1.656;2022-11-20T14:18:18;19.95;;;4.07;;
26963;SDS011;14521;48.148;-1.656;2022-11-20T14:21:43;13.43;;;3.58;;
26963;SDS011;14521;48.148;-1.656;2022-11-20T14:25:06;11.85;;;2.80;;
26963;SDS011;14521;48.148;-1.656;2022-11-20T14:28:35;15.27;;;3.95;;
26963;SDS011;14521;48.148;-1.656;2022-11-20T14:31:58;11.07;;;3.00;;
26963;SDS011;14521;48.148;-1.656;2022-11-20T14:35:25;13.90;;;3.20;;
26963;SDS011;14521;48.148;-1.656;2022-11-20T14:38:47;20.17;;;3.22;;
26963;SDS011;14521;48.148;-1.656;2022-11-20T14:42:17;10.43;;;2.97;;
26963;SDS011;14521;48.148;-1.656;2022-11-20T14:45:41;8.43;;;2.95;;
26963;SDS011;14521;48.148;-1.656;2022-11-20T14:49:04;12.13;;;2.92;;
26963;SDS011;14521;48.148;-1.656;2022-11-20T14:52:27;11.68;;;2.70;;
26963;SDS011;14521;48.148;-1.656;2022-11-20T14:55:57;10.43;;;3.08;;
26963;SDS011;14521;48.148;-1.656;2022-11-20T14:59:24;10.00;;;3.05;;
26963;SDS011;14521;48.148;-1.656;2022-11-20T15:02:48;18.98;;;4.68;;
26963;SDS011;14521;48.148;-1.656;2022-11-20T15:06:12;10.15;;;2.88;;
26963;SDS011;14521;48.148;-1.656;2022-11-20T15:09:34;17.27;;;3.08;;
26963;SDS011;14521;48.148;-1.656;2022-11-20T15:13:03;9.80;;;3.15;;
26963;SDS011;14521;48.148;-1.656;2022-11-20T15:16:33;10.13;;;2.90;;
26963;SDS011;14521;48.148;-1.656;2022-11-20T15:19:56;10.05;;;3.33;;
26963;SDS011;14521;48.148;-1.656;2022-11-20T15:23:18;10.95;;;3.13;;
26963;SDS011;14521;48.148;-1.656;2022-11-20T15:26:41;15.00;;;3.10;;
26963;SDS011;14521;48.148;-1.656;2022-11-20T15:30:09;7.63;;;2.80;;
26963;SDS011;14521;48.148;-1.656;2022-11-20T15:33:38;12.70;;;2.15;;
26963;SDS011;14521;48.148;-1.656;2022-11-20T15:37:00;6.75;;;2.40;;
26963;SDS011;14521;48.148;-1.656;2022-11-20T15:40:22;7.05;;;2.97;;
26963;SDS011;14521;48.148;-1.656;2022-11-20T15:43:45;9.73;;;2.45;;
26963;SDS011;14521;48.148;-1.656;2022-11-20T15:47:08;8.23;;;2.40;;
26963;SDS011;14521;48.148;-1.656;2022-11-20T15:50:36;9.40;;;2.85;;
26963;SDS011;14521;48.148;-1.656;2022-11-20T15:54:01;8.38;;;2.65;;
26963;SDS011;14521;48.148;-1.656;2022-11-20T15:57:43;9.30;;;2.08;;
26963;SDS011;14521;48.148;-1.656;2022-11-20T16:01:09;9.73;;;2.22;;
26963;SDS011;14521;48.148;-1.656;2022-11-20T16:04:33;8.25;;;1.88;;
26963;SDS011;14521;48.148;-1.656;2022-11-20T16:07:55;11.52;;;2.35;;
26963;SDS011;14521;48.148;-1.656;2022-11-20T16:11:18;9.00;;;2.75;;
26963;SDS011;14521;48.148;-1.656;2022-11-20T16:14:40;3.88;;;2.00;;
26963;SDS011;14521;48.148;-1.656;2022-11-20T16:18:01;14.10;;;2.13;;
26963;SDS011;14521;48.148;-1.656;2022-11-20T16:21:03;7.60;;;2.22;;
26963;SDS011;14521;48.148;-1.656;2022-11-20T16:24:05;5.95;;;1.95;;
26963;SDS011;14521;48.148;-1.656;2022-11-20T16:27:08;8.85;;;2.42;;
26963;SDS011;14521;48.148;-1.656;2022-11-20T16:30:11;10.75;;;2.65;;
26963;SDS011;14521;48.148;-1.656;2022-11-20T16:33:14;4.60;;;2.00;;
26963;SDS011;14521;48.148;-1.656;2022-11-20T16:36:19;8.57;;;2.10;;
26963;SDS011;14521;48.148;-1.656;2022-11-20T16:39:22;10.40;;;2.47;;
26963;SDS011;14521;48.148;-1.656;2022-11-20T16:42:26;7.20;;;2.08;;
26963;SDS011;14521;48.148;-1.656;2022-11-20T16:45:28;5.20;;;2.03;;
26963;SDS011;14521;48.148;-1.656;2022-11-20T16:48:34;10.98;;;2.40;;
26963;SDS011;14521;48.148;-1.656;2022-11-20T16:51:36;7.80;;;1.90;;
26963;SDS011;14521;48.148;-1.656;2022-11-20T16:54:38;7.30;;;1.90;;
26963;SDS011;14521;48.148;-1.656;2022-11-20T16:57:40;7.30;;;2.20;;
26963;SDS011;14521;48.148;-1.656;2022-11-20T17:01:08;5.20;;;1.65;;
26963;SDS011;14521;48.148;-1.656;2022-11-20T17:04:32;7.60;;;1.88;;
26963;SDS011;14521;48.148;-1.656;2022-11-20T17:07:54;8.93;;;1.77;;
26963;SDS011;14521;48.148;-1.656;2022-11-20T17:11:17;5.75;;;2.10;;
26963;SDS011;14521;48.148;-1.656;2022-11-20T17:14:40;7.05;;;2.17;;
26963;SDS011;14521;48.148;-1.656;2022-11-20T17:18:02;4.80;;;1.73;;
26963;SDS011;14521;48.148;-1.656;2022-11-20T17:21:25;4.97;;;1.58;;
26963;SDS011;14521;48.148;-1.656;2022-11-20T17:24:47;7.95;;;1.67;;
26963;SDS011;14521;48.148;-1.656;2022-11-20T17:28:09;9.80;;;3.65;;
26963;SDS011;14521;48.148;-1.656;2022-11-20T17:31:32;5.70;;;1.80;;
26963;SDS011;14521;48.148;-1.656;2022-11-20T17:34:55;6.05;;;1.60;;
26963;SDS011;14521;48.148;-1.656;2022-11-20T17:38:19;7.72;;;1.98;;
26963;SDS011;14521;48.148;-1.656;2022-11-20T17:41:41;6.38;;;1.55;;
26963;SDS011;14521;48.148;-1.656;2022-11-20T17:45:04;7.38;;;1.55;;
26963;SDS011;14521;48.148;-1.656;2022-11-20T17:48:27;4.75;;;1.75;;
26963;SDS011;14521;48.148;-1.656;2022-11-20T17:51:51;3.90;;;1.42;;
26963;SDS011;14521;48.148;-1.656;2022-11-20T17:55:13;8.80;;;1.80;;
26963;SDS011;14521;48.148;-1.656;2022-11-20T17:58:36;5.35;;;1.65;;
26963;SDS011;14521;48.148;-1.656;2022-11-20T18:01:58;12.50;;;2.08;;
26963;SDS011;14521;48.148;-1.656;2022-11-20T18:05:25;6.72;;;1.90;;
26963;SDS011;14521;48.148;-1.656;2022-11-20T18:08:48;6.32;;;2.00;;
26963;SDS011;14521;48.148;-1.656;2022-11-20T18:12:11;7.35;;;1.58;;
26963;SDS011;14521;48.148;-1.656;2022-11-20T18:15:33;3.78;;;1.63;;
26963;SDS011;14521;48.148;-1.656;2022-11-20T18:18:56;6.43;;;2.08;;
26963;SDS011;14521;48.148;-1.656;2022-11-20T18:22:19;11.10;;;2.30;;
26963;SDS011;14521;48.148;-1.656;2022-11-20T18:25:41;7.93;;;2.05;;
26963;SDS011;14521;48.148;-1.656;2022-11-20T18:29:05;5.85;;;1.92;;
26963;SDS011;14521;48.148;-1.656;2022-11-20T18:32:28;7.75;;;2.38;;
26963;SDS011;14521;48.148;-1.656;2022-11-20T18:35:50;4.35;;;1.98;;
26963;SDS011;14521;48.148;-1.656;2022-11-20T18:39:13;6.78;;;2.15;;
26963;SDS011;14521;48.148;-1.656;2022-11-20T18:42:35;4.90;;;2.10;;
26963;SDS011;14521;48.148;-1.656;2022-11-20T18:46:16;5.43;;;2.17;;
26963;SDS011;14521;48.148;-1.656;2022-11-20T18:49:40;7.00;;;2.22;;
26963;SDS011;14521;48.148;-1.656;2022-11-20T18:53:03;8.10;;;1.85;;
26963;SDS011;14521;48.148;-1.656;2022-11-20T18:56:25;5.78;;;2.00;;
26963;SDS011;14521;48.148;-1.656;2022-11-20T18:59:47;4.57;;;1.73;;
26963;SDS011;14521;48.148;-1.656;2022-11-20T19:03:10;6.57;;;2.10;;
26963;SDS011;14521;48.148;-1.656;2022-11-20T19:06:33;5.65;;;1.67;;
26963;SDS011;14521;48.148;-1.656;2022-11-20T19:09:56;3.83;;;2.00;;
26963;SDS011;14521;48.148;-1.656;2022-11-20T19:13:24;8.10;;;1.75;;
26963;SDS011;14521;48.148;-1.656;2022-11-20T19:16:47;4.45;;;1.80;;
26963;SDS011;14521;48.148;-1.656;2022-11-20T19:20:09;4.53;;;1.50;;
26963;SDS011;14521;48.148;-1.656;2022-11-20T19:23:31;7.65;;;1.92;;
26963;SDS011;14521;48.148;-1.656;2022-11-20T19:26:54;5.93;;;2.13;;
26963;SDS011;14521;48.148;-1.656;2022-11-20T19:30:16;2.63;;;1.38;;
26963;SDS011;14521;48.148;-1.656;2022-11-20T19:33:39;4.90;;;1.73;;
26963;SDS011;14521;48.148;-1.656;2022-11-20T19:37:02;1.92;;;1.50;;
26963;SDS011;14521;48.148;-1.656;2022-11-20T19:40:25;3.20;;;1.70;;
26963;SDS011;14521;48.148;-1.656;2022-11-20T19:43:47;4.60;;;2.70;;
26963;SDS011;14521;48.148;-1.656;2022-11-20T19:47:10;6.00;;;1.90;;
26963;SDS011;14521;48.148;-1.656;2022-11-20T19:50:35;8.25;;;1.80;;
26963;SDS011;14521;48.148;-1.656;2022-11-20T19:53:57;5.60;;;1.65;;
26963;SDS011;14521;48.148;-1.656;2022-11-20T19:57:20;3.60;;;1.73;;
26963;SDS011;14521;48.148;-1.656;2022-11-20T20:00:43;6.05;;;1.75;;
26963;SDS011;14521;48.148;-1.656;2022-11-20T20:04:05;4.00;;;1.52;;
26963;SDS011;14521;48.148;-1.656;2022-11-20T20:07:28;6.93;;;1.60;;
26963;SDS011;14521;48.148;-1.656;2022-11-20T20:10:50;3.63;;;1.45;;
26963;SDS011;14521;48.148;-1.656;2022-11-20T20:14:19;3.58;;;1.20;;
26963;SDS011;14521;48.148;-1.656;2022-11-20T20:17:42;4.68;;;1.88;;
26963;SDS011;14521;48.148;-1.656;2022-11-20T20:21:05;3.03;;;1.77;;
26963;SDS011;14521;48.148;-1.656;2022-11-20T20:24:28;4.80;;;1.90;;
26963;SDS011;14521;48.148;-1.656;2022-11-20T20:27:51;5.78;;;1.63;;
26963;SDS011;14521;48.148;-1.656;2022-11-20T20:31:14;3.03;;;1.40;;
26963;SDS011;14521;48.148;-1.656;2022-11-20T20:34:38;4.60;;;1.50;;
26963;SDS011;14521;48.148;-1.656;2022-11-20T20:38:00;5.20;;;1.80;;
26963;SDS011;14521;48.148;-1.656;2022-11-20T20:41:23;4.28;;;1.50;;
26963;SDS011;14521;48.148;-1.656;2022-11-20T20:44:46;4.75;;;1.70;;
26963;SDS011;14521;48.148;-1.656;2022-11-20T20:48:27;5.57;;;1.92;;
26963;SDS011;14521;48.148;-1.656;2022-11-20T20:51:49;4.13;;;1.73;;
26963;SDS011;14521;48.148;-1.656;2022-11-20T20:55:11;2.42;;;1.48;;
26963;SDS011;14521;48.148;-1.656;2022-11-20T20:58:34;3.80;;;1.30;;
26963;SDS011;14521;48.148;-1.656;2022-11-20T21:01:56;4.35;;;1.63;;
26963;SDS011;14521;48.148;-1.656;2022-11-20T21:05:19;4.43;;;1.58;;
26963;SDS011;14521;48.148;-1.656;2022-11-20T21:08:41;8.77;;;1.77;;
26963;SDS011;14521;48.148;-1.656;2022-11-20T21:12:05;5.97;;;1.50;;
26963;SDS011;14521;48.148;-1.656;2022-11-20T21:15:28;4.30;;;1.67;;
26963;SDS011;14521;48.148;-1.656;2022-11-20T21:18:50;5.70;;;1.70;;
26963;SDS011;14521;48.148;-1.656;2022-11-20T21:22:12;8.70;;;1.58;;
26963;SDS011;14521;48.148;-1.656;2022-11-20T21:25:35;2.65;;;1.65;;
26963;SDS011;14521;48.148;-1.656;2022-11-20T21:28:58;7.28;;;1.90;;
26963;SDS011;14521;48.148;-1.656;2022-11-20T21:32:21;4.07;;;2.05;;